Terminal Aerodrome Forecast
Issued by NWS

Current Version | Previous Version | Text Only | Print | Product List | Glossary Off
Versions: 1 2 3 4 5 6 7 8 9 10 11 12 13 14 15 16 17 18 19 20 21 22 23 24 25 26 27 28 29 30 31 32 33 34 35 36 37 38 39 40 41 42 43 44 45 46

000
FTUS44 KHGX 311720
TAFIAH
TAF
KIAH 311720Z 3118/0124 21004KT P6SM VCSH SCT040 SCT150 BKN200
     FM312100 17007KT P6SM VCTS BKN040CB
      TEMPO 3123/0103 VRB10G25KT 4SM TSRA BKN035CB
     FM011000 24003KT P6SM VCSH BKN050
     FM011400 27005KT P6SM SCT015 BKN040
     FM012100 30005KT P6SM VCSH BKN040=

USA.gov is the U.S. government's official web portal to all federal, state and local government web resources and services.